sensor_id;sensor_type;location;lat;lon;timestamp;P1;durP1;ratioP1;P2;durP2;ratioP2
9844;SDS011;4961;50.782;6.080;2022-07-21T00:00:52;4.50;;;2.83;;
9844;SDS011;4961;50.782;6.080;2022-07-21T00:03:20;2.90;;;2.70;;
9844;SDS011;4961;50.782;6.080;2022-07-21T00:05:49;3.60;;;3.40;;
9844;SDS011;4961;50.782;6.080;2022-07-21T00:08:19;3.57;;;3.27;;
9844;SDS011;4961;50.782;6.080;2022-07-21T00:10:48;3.03;;;2.83;;
9844;SDS011;4961;50.782;6.080;2022-07-21T00:13:16;3.57;;;3.37;;
9844;SDS011;4961;50.782;6.080;2022-07-21T00:15:45;3.57;;;3.00;;
9844;SDS011;4961;50.782;6.080;2022-07-21T00:18:13;6.27;;;3.93;;
9844;SDS011;4961;50.782;6.080;2022-07-21T00:20:42;3.90;;;3.40;;
9844;SDS011;4961;50.782;6.080;2022-07-21T00:23:11;5.43;;;3.17;;
9844;SDS011;4961;50.782;6.080;2022-07-21T00:25:41;4.23;;;3.70;;
9844;SDS011;4961;50.782;6.080;2022-07-21T00:28:10;5.03;;;3.80;;
9844;SDS011;4961;50.782;6.080;2022-07-21T00:30:38;4.00;;;3.70;;
9844;SDS011;4961;50.782;6.080;2022-07-21T00:33:07;4.47;;;4.03;;
9844;SDS011;4961;50.782;6.080;2022-07-21T00:35:35;4.10;;;3.70;;
9844;SDS011;4961;50.782;6.080;2022-07-21T00:38:03;5.00;;;4.60;;
9844;SDS011;4961;50.782;6.080;2022-07-21T00:40:32;4.87;;;4.47;;
9844;SDS011;4961;50.782;6.080;2022-07-21T00:43:01;4.60;;;4.20;;
9844;SDS011;4961;50.782;6.080;2022-07-21T00:45:30;4.90;;;4.37;;
9844;SDS011;4961;50.782;6.080;2022-07-21T00:47:58;6.33;;;5.03;;
9844;SDS011;4961;50.782;6.080;2022-07-21T00:50:28;4.33;;;4.10;;
9844;SDS011;4961;50.782;6.080;2022-07-21T00:52:59;4.97;;;4.47;;
9844;SDS011;4961;50.782;6.080;2022-07-21T00:55:29;6.67;;;5.47;;
9844;SDS011;4961;50.782;6.080;2022-07-21T00:57:57;5.03;;;4.53;;
9844;SDS011;4961;50.782;6.080;2022-07-21T01:00:27;5.40;;;5.00;;
9844;SDS011;4961;50.782;6.080;2022-07-21T01:03:04;5.47;;;5.00;;
9844;SDS011;4961;50.782;6.080;2022-07-21T01:05:33;5.73;;;5.13;;
9844;SDS011;4961;50.782;6.080;2022-07-21T01:08:01;6.30;;;5.40;;
9844;SDS011;4961;50.782;6.080;2022-07-21T01:10:30;7.40;;;5.73;;
9844;SDS011;4961;50.782;6.080;2022-07-21T01:12:59;5.07;;;4.70;;
9844;SDS011;4961;50.782;6.080;2022-07-21T01:15:29;4.53;;;4.23;;
9844;SDS011;4961;50.782;6.080;2022-07-21T01:20:44;5.53;;;5.03;;
9844;SDS011;4961;50.782;6.080;2022-07-21T01:23:20;7.80;;;5.10;;
9844;SDS011;4961;50.782;6.080;2022-07-21T01:25:49;4.83;;;4.43;;
9844;SDS011;4961;50.782;6.080;2022-07-21T01:28:18;4.90;;;4.50;;
9844;SDS011;4961;50.782;6.080;2022-07-21T01:30:46;4.67;;;4.37;;
9844;SDS011;4961;50.782;6.080;2022-07-21T01:33:14;5.10;;;4.70;;
9844;SDS011;4961;50.782;6.080;2022-07-21T01:35:42;5.17;;;4.77;;
9844;SDS011;4961;50.782;6.080;2022-07-21T01:38:11;5.60;;;5.13;;
9844;SDS011;4961;50.782;6.080;2022-07-21T01:40:58;5.90;;;5.40;;
9844;SDS011;4961;50.782;6.080;2022-07-21T01:43:45;5.97;;;5.30;;
9844;SDS011;4961;50.782;6.080;2022-07-21T01:46:13;6.43;;;5.43;;
9844;SDS011;4961;50.782;6.080;2022-07-21T01:48:42;4.93;;;4.47;;
9844;SDS011;4961;50.782;6.080;2022-07-21T01:51:10;5.77;;;5.23;;
9844;SDS011;4961;50.782;6.080;2022-07-21T01:53:39;7.90;;;4.70;;
9844;SDS011;4961;50.782;6.080;2022-07-21T01:56:08;6.47;;;4.83;;
9844;SDS011;4961;50.782;6.080;2022-07-21T01:58:37;5.33;;;4.97;;
9844;SDS011;4961;50.782;6.080;2022-07-21T02:01:05;5.00;;;4.60;;
9844;SDS011;4961;50.782;6.080;2022-07-21T02:03:33;7.20;;;5.40;;
9844;SDS011;4961;50.782;6.080;2022-07-21T02:06:02;5.00;;;4.57;;
9844;SDS011;4961;50.782;6.080;2022-07-21T02:08:32;4.80;;;4.50;;
9844;SDS011;4961;50.782;6.080;2022-07-21T02:11:00;5.60;;;5.20;;
9844;SDS011;4961;50.782;6.080;2022-07-21T02:13:30;6.80;;;6.20;;
9844;SDS011;4961;50.782;6.080;2022-07-21T02:15:58;5.73;;;5.23;;
9844;SDS011;4961;50.782;6.080;2022-07-21T02:18:26;5.90;;;5.40;;
9844;SDS011;4961;50.782;6.080;2022-07-21T02:20:56;6.10;;;5.60;;
9844;SDS011;4961;50.782;6.080;2022-07-21T02:23:24;7.63;;;5.37;;
9844;SDS011;4961;50.782;6.080;2022-07-21T02:25:53;8.60;;;6.03;;
9844;SDS011;4961;50.782;6.080;2022-07-21T02:28:23;6.87;;;5.50;;
9844;SDS011;4961;50.782;6.080;2022-07-21T02:30:54;6.50;;;5.87;;
9844;SDS011;4961;50.782;6.080;2022-07-21T02:33:23;5.10;;;4.70;;
9844;SDS011;4961;50.782;6.080;2022-07-21T02:35:51;6.97;;;6.47;;
9844;SDS011;4961;50.782;6.080;2022-07-21T02:38:19;8.17;;;6.40;;
9844;SDS011;4961;50.782;6.080;2022-07-21T02:40:48;6.40;;;5.80;;
9844;SDS011;4961;50.782;6.080;2022-07-21T02:43:22;7.23;;;6.50;;
9844;SDS011;4961;50.782;6.080;2022-07-21T02:45:51;6.80;;;6.20;;
9844;SDS011;4961;50.782;6.080;2022-07-21T02:48:20;8.13;;;7.03;;
9844;SDS011;4961;50.782;6.080;2022-07-21T02:50:49;6.77;;;6.17;;
9844;SDS011;4961;50.782;6.080;2022-07-21T02:53:18;5.90;;;5.40;;
9844;SDS011;4961;50.782;6.080;2022-07-21T02:55:49;7.20;;;6.47;;
9844;SDS011;4961;50.782;6.080;2022-07-21T02:58:19;7.57;;;6.87;;
9844;SDS011;4961;50.782;6.080;2022-07-21T03:00:50;6.87;;;6.10;;
9844;SDS011;4961;50.782;6.080;2022-07-21T03:03:22;6.97;;;6.37;;
9844;SDS011;4961;50.782;6.080;2022-07-21T03:05:51;6.87;;;6.07;;
9844;SDS011;4961;50.782;6.080;2022-07-21T03:08:21;7.10;;;6.60;;
9844;SDS011;4961;50.782;6.080;2022-07-21T03:10:50;6.60;;;6.10;;
9844;SDS011;4961;50.782;6.080;2022-07-21T03:13:18;7.90;;;7.10;;
9844;SDS011;4961;50.782;6.080;2022-07-21T03:15:47;9.17;;;6.53;;
9844;SDS011;4961;50.782;6.080;2022-07-21T03:18:15;8.83;;;7.00;;
9844;SDS011;4961;50.782;6.080;2022-07-21T03:20:45;7.27;;;6.73;;
9844;SDS011;4961;50.782;6.080;2022-07-21T03:23:14;9.23;;;8.03;;
9844;SDS011;4961;50.782;6.080;2022-07-21T03:25:42;10.03;;;8.03;;
9844;SDS011;4961;50.782;6.080;2022-07-21T03:28:10;8.13;;;7.20;;
9844;SDS011;4961;50.782;6.080;2022-07-21T03:30:38;7.93;;;7.10;;
9844;SDS011;4961;50.782;6.080;2022-07-21T03:33:07;7.83;;;7.13;;
9844;SDS011;4961;50.782;6.080;2022-07-21T03:35:35;8.87;;;8.07;;
9844;SDS011;4961;50.782;6.080;2022-07-21T03:38:04;8.10;;;7.27;;
9844;SDS011;4961;50.782;6.080;2022-07-21T03:40:34;8.87;;;8.13;;
9844;SDS011;4961;50.782;6.080;2022-07-21T03:43:04;9.23;;;8.07;;
9844;SDS011;4961;50.782;6.080;2022-07-21T03:45:34;8.30;;;7.60;;
9844;SDS011;4961;50.782;6.080;2022-07-21T03:48:04;7.87;;;7.03;;
9844;SDS011;4961;50.782;6.080;2022-07-21T03:50:33;8.37;;;7.57;;
9844;SDS011;4961;50.782;6.080;2022-07-21T03:53:03;8.40;;;7.70;;
9844;SDS011;4961;50.782;6.080;2022-07-21T03:55:33;7.97;;;7.27;;
9844;SDS011;4961;50.782;6.080;2022-07-21T03:58:02;8.20;;;7.50;;
9844;SDS011;4961;50.782;6.080;2022-07-21T04:00:33;8.77;;;8.00;;
9844;SDS011;4961;50.782;6.080;2022-07-21T04:03:03;10.67;;;8.37;;
9844;SDS011;4961;50.782;6.080;2022-07-21T04:05:33;8.47;;;7.70;;
9844;SDS011;4961;50.782;6.080;2022-07-21T04:08:02;8.63;;;7.90;;
9844;SDS011;4961;50.782;6.080;2022-07-21T04:10:33;8.70;;;7.80;;
9844;SDS011;4961;50.782;6.080;2022-07-21T04:13:04;8.03;;;7.10;;
9844;SDS011;4961;50.782;6.080;2022-07-21T04:15:33;8.87;;;8.07;;
9844;SDS011;4961;50.782;6.080;2022-07-21T04:18:03;8.43;;;7.50;;
9844;SDS011;4961;50.782;6.080;2022-07-21T04:20:32;8.97;;;7.70;;
9844;SDS011;4961;50.782;6.080;2022-07-21T04:23:00;7.60;;;6.90;;
9844;SDS011;4961;50.782;6.080;2022-07-21T04:25:31;7.57;;;6.87;;
9844;SDS011;4961;50.782;6.080;2022-07-21T04:27:59;7.97;;;7.17;;
9844;SDS011;4961;50.782;6.080;2022-07-21T04:30:27;7.53;;;6.73;;
9844;SDS011;4961;50.782;6.080;2022-07-21T04:32:55;8.33;;;7.63;;
9844;SDS011;4961;50.782;6.080;2022-07-21T04:35:24;8.20;;;7.37;;
9844;SDS011;4961;50.782;6.080;2022-07-21T04:37:52;8.13;;;7.33;;
9844;SDS011;4961;50.782;6.080;2022-07-21T04:40:20;9.53;;;8.27;;
9844;SDS011;4961;50.782;6.080;2022-07-21T04:42:50;8.20;;;7.40;;
9844;SDS011;4961;50.782;6.080;2022-07-21T04:45:18;9.00;;;8.20;;
9844;SDS011;4961;50.782;6.080;2022-07-21T04:47:48;9.13;;;7.83;;
9844;SDS011;4961;50.782;6.080;2022-07-21T04:50:18;9.23;;;8.33;;
9844;SDS011;4961;50.782;6.080;2022-07-21T04:52:48;8.33;;;7.40;;
9844;SDS011;4961;50.782;6.080;2022-07-21T04:55:18;8.60;;;7.73;;
9844;SDS011;4961;50.782;6.080;2022-07-21T04:57:47;20.03;;;12.43;;
9844;SDS011;4961;50.782;6.080;2022-07-21T05:00:19;12.27;;;8.73;;
9844;SDS011;4961;50.782;6.080;2022-07-21T05:02:51;9.20;;;8.30;;
9844;SDS011;4961;50.782;6.080;2022-07-21T05:05:20;9.27;;;8.33;;
9844;SDS011;4961;50.782;6.080;2022-07-21T05:07:49;9.77;;;8.00;;
9844;SDS011;4961;50.782;6.080;2022-07-21T05:10:18;8.13;;;7.33;;
9844;SDS011;4961;50.782;6.080;2022-07-21T05:12:47;7.97;;;7.37;;
9844;SDS011;4961;50.782;6.080;2022-07-21T05:15:17;8.10;;;7.27;;
9844;SDS011;4961;50.782;6.080;2022-07-21T05:17:45;8.33;;;7.50;;
9844;SDS011;4961;50.782;6.080;2022-07-21T05:20:14;8.53;;;7.83;;
9844;SDS011;4961;50.782;6.080;2022-07-21T05:22:42;8.33;;;7.63;;
9844;SDS011;4961;50.782;6.080;2022-07-21T05:25:10;7.60;;;6.90;;
9844;SDS011;4961;50.782;6.080;2022-07-21T05:27:38;8.63;;;7.87;;
9844;SDS011;4961;50.782;6.080;2022-07-21T05:30:09;7.73;;;7.13;;
9844;SDS011;4961;50.782;6.080;2022-07-21T05:32:38;8.70;;;6.80;;
9844;SDS011;4961;50.782;6.080;2022-07-21T05:35:13;8.60;;;6.73;;
9844;SDS011;4961;50.782;6.080;2022-07-21T05:37:42;8.83;;;7.17;;
9844;SDS011;4961;50.782;6.080;2022-07-21T05:40:11;8.50;;;6.87;;
9844;SDS011;4961;50.782;6.080;2022-07-21T05:42:40;8.00;;;6.33;;
9844;SDS011;4961;50.782;6.080;2022-07-21T05:45:10;8.03;;;5.87;;
9844;SDS011;4961;50.782;6.080;2022-07-21T05:47:40;5.40;;;5.00;;
9844;SDS011;4961;50.782;6.080;2022-07-21T05:50:10;6.47;;;5.67;;
9844;SDS011;4961;50.782;6.080;2022-07-21T05:52:40;7.57;;;5.40;;
9844;SDS011;4961;50.782;6.080;2022-07-21T05:55:09;5.40;;;5.00;;
9844;SDS011;4961;50.782;6.080;2022-07-21T05:57:38;6.47;;;4.93;;
9844;SDS011;4961;50.782;6.080;2022-07-21T06:00:13;5.90;;;5.30;;
9844;SDS011;4961;50.782;6.080;2022-07-21T06:02:42;5.20;;;4.53;;
9844;SDS011;4961;50.782;6.080;2022-07-21T06:05:11;6.97;;;5.00;;
9844;SDS011;4961;50.782;6.080;2022-07-21T06:07:39;5.33;;;4.93;;
9844;SDS011;4961;50.782;6.080;2022-07-21T06:10:08;5.27;;;4.17;;
9844;SDS011;4961;50.782;6.080;2022-07-21T06:12:41;5.17;;;4.70;;
9844;SDS011;4961;50.782;6.080;2022-07-21T06:15:10;6.13;;;5.50;;
9844;SDS011;4961;50.782;6.080;2022-07-21T06:17:40;6.27;;;5.73;;
9844;SDS011;4961;50.782;6.080;2022-07-21T06:20:09;5.37;;;4.97;;
9844;SDS011;4961;50.782;6.080;2022-07-21T06:22:38;7.10;;;5.30;;
9844;SDS011;4961;50.782;6.080;2022-07-21T06:25:08;5.63;;;5.13;;
9844;SDS011;4961;50.782;6.080;2022-07-21T06:27:43;7.37;;;5.50;;
9844;SDS011;4961;50.782;6.080;2022-07-21T06:30:16;5.77;;;5.03;;
9844;SDS011;4961;50.782;6.080;2022-07-21T06:32:45;7.77;;;4.63;;
9844;SDS011;4961;50.782;6.080;2022-07-21T06:35:13;7.10;;;5.43;;
9844;SDS011;4961;50.782;6.080;2022-07-21T06:37:43;6.23;;;4.50;;
9844;SDS011;4961;50.782;6.080;2022-07-21T06:40:13;5.67;;;4.90;;
9844;SDS011;4961;50.782;6.080;2022-07-21T06:42:41;5.47;;;4.93;;
9844;SDS011;4961;50.782;6.080;2022-07-21T06:45:29;5.20;;;4.67;;
9844;SDS011;4961;50.782;6.080;2022-07-21T06:48:03;5.40;;;4.90;;
9844;SDS011;4961;50.782;6.080;2022-07-21T06:50:33;7.07;;;5.10;;
9844;SDS011;4961;50.782;6.080;2022-07-21T06:53:02;6.37;;;4.77;;
9844;SDS011;4961;50.782;6.080;2022-07-21T06:55:31;4.83;;;4.43;;
9844;SDS011;4961;50.782;6.080;2022-07-21T06:58:07;6.53;;;5.90;;
9844;SDS011;4961;50.782;6.080;2022-07-21T07:00:37;6.27;;;5.33;;
9844;SDS011;4961;50.782;6.080;2022-07-21T07:03:07;7.43;;;5.43;;
9844;SDS011;4961;50.782;6.080;2022-07-21T07:05:35;5.20;;;4.67;;
9844;SDS011;4961;50.782;6.080;2022-07-21T07:08:04;5.13;;;4.73;;
9844;SDS011;4961;50.782;6.080;2022-07-21T07:10:37;7.13;;;5.37;;
9844;SDS011;4961;50.782;6.080;2022-07-21T07:13:06;5.23;;;4.83;;
9844;SDS011;4961;50.782;6.080;2022-07-21T07:15:55;6.90;;;6.20;;
9844;SDS011;4961;50.782;6.080;2022-07-21T07:18:25;5.90;;;5.40;;
9844;SDS011;4961;50.782;6.080;2022-07-21T07:20:53;6.63;;;5.50;;
9844;SDS011;4961;50.782;6.080;2022-07-21T07:23:21;8.00;;;5.40;;
9844;SDS011;4961;50.782;6.080;2022-07-21T07:25:50;7.20;;;5.33;;
9844;SDS011;4961;50.782;6.080;2022-07-21T07:28:18;7.13;;;5.40;;
9844;SDS011;4961;50.782;6.080;2022-07-21T07:30:46;7.33;;;5.77;;
9844;SDS011;4961;50.782;6.080;2022-07-21T07:33:15;6.03;;;5.20;;
9844;SDS011;4961;50.782;6.080;2022-07-21T07:35:45;5.70;;;5.13;;
9844;SDS011;4961;50.782;6.080;2022-07-21T07:38:13;5.67;;;5.27;;
9844;SDS011;4961;50.782;6.080;2022-07-21T07:40:42;5.37;;;4.87;;
9844;SDS011;4961;50.782;6.080;2022-07-21T07:43:10;5.63;;;5.17;;
9844;SDS011;4961;50.782;6.080;2022-07-21T07:45:38;6.17;;;5.57;;
9844;SDS011;4961;50.782;6.080;2022-07-21T07:48:07;6.27;;;5.77;;
9844;SDS011;4961;50.782;6.080;2022-07-21T07:50:35;8.20;;;5.47;;
9844;SDS011;4961;50.782;6.080;2022-07-21T07:53:06;6.17;;;5.63;;
9844;SDS011;4961;50.782;6.080;2022-07-21T07:55:37;6.33;;;4.93;;
9844;SDS011;4961;50.782;6.080;2022-07-21T07:58:05;5.70;;;5.07;;
9844;SDS011;4961;50.782;6.080;2022-07-21T08:00:34;5.70;;;5.20;;
9844;SDS011;4961;50.782;6.080;2022-07-21T08:03:21;5.60;;;4.80;;
9844;SDS011;4961;50.782;6.080;2022-07-21T08:05:51;4.93;;;4.47;;
9844;SDS011;4961;50.782;6.080;2022-07-21T08:08:21;6.63;;;5.07;;
9844;SDS011;4961;50.782;6.080;2022-07-21T08:10:50;4.73;;;4.30;;
9844;SDS011;4961;50.782;6.080;2022-07-21T08:13:18;4.90;;;4.50;;
9844;SDS011;4961;50.782;6.080;2022-07-21T08:15:47;4.63;;;4.23;;
9844;SDS011;4961;50.782;6.080;2022-07-21T08:18:16;4.67;;;4.30;;
9844;SDS011;4961;50.782;6.080;2022-07-21T08:20:47;6.13;;;4.57;;
9844;SDS011;4961;50.782;6.080;2022-07-21T08:23:16;4.93;;;4.53;;
9844;SDS011;4961;50.782;6.080;2022-07-21T08:25:46;5.07;;;4.17;;
9844;SDS011;4961;50.782;6.080;2022-07-21T08:28:14;4.30;;;3.63;;
9844;SDS011;4961;50.782;6.080;2022-07-21T08:30:43;5.17;;;3.57;;
9844;SDS011;4961;50.782;6.080;2022-07-21T08:33:11;5.63;;;3.47;;
9844;SDS011;4961;50.782;6.080;2022-07-21T08:35:39;3.50;;;3.20;;
9844;SDS011;4961;50.782;6.080;2022-07-21T08:38:08;5.67;;;4.57;;
9844;SDS011;4961;50.782;6.080;2022-07-21T08:40:38;6.90;;;4.63;;
9844;SDS011;4961;50.782;6.080;2022-07-21T08:43:10;3.97;;;2.87;;
9844;SDS011;4961;50.782;6.080;2022-07-21T08:45:41;5.53;;;4.10;;
9844;SDS011;4961;50.782;6.080;2022-07-21T08:48:10;4.67;;;3.90;;
9844;SDS011;4961;50.782;6.080;2022-07-21T08:50:44;3.23;;;2.93;;
9844;SDS011;4961;50.782;6.080;2022-07-21T08:53:12;4.17;;;3.77;;
9844;SDS011;4961;50.782;6.080;2022-07-21T08:55:41;4.10;;;3.60;;
9844;SDS011;4961;50.782;6.080;2022-07-21T08:58:11;5.47;;;3.47;;
9844;SDS011;4961;50.782;6.080;2022-07-21T09:00:40;5.13;;;3.67;;
9844;SDS011;4961;50.782;6.080;2022-07-21T09:03:11;4.17;;;3.93;;
9844;SDS011;4961;50.782;6.080;2022-07-21T09:05:41;6.27;;;4.03;;
9844;SDS011;4961;50.782;6.080;2022-07-21T09:08:10;6.87;;;4.30;;
9844;SDS011;4961;50.782;6.080;2022-07-21T09:10:39;5.03;;;4.57;;
9844;SDS011;4961;50.782;6.080;2022-07-21T09:13:10;4.37;;;3.77;;
9844;SDS011;4961;50.782;6.080;2022-07-21T09:15:39;5.37;;;4.33;;
9844;SDS011;4961;50.782;6.080;2022-07-21T09:18:08;6.77;;;4.47;;
9844;SDS011;4961;50.782;6.080;2022-07-21T09:20:38;6.23;;;4.37;;
9844;SDS011;4961;50.782;6.080;2022-07-21T09:23:14;6.10;;;4.37;;
9844;SDS011;4961;50.782;6.080;2022-07-21T09:25:44;7.90;;;5.33;;
9844;SDS011;4961;50.782;6.080;2022-07-21T09:28:15;6.53;;;4.83;;
9844;SDS011;4961;50.782;6.080;2022-07-21T09:30:48;6.50;;;4.67;;
9844;SDS011;4961;50.782;6.080;2022-07-21T09:33:19;5.60;;;4.87;;
9844;SDS011;4961;50.782;6.080;2022-07-21T09:35:57;5.83;;;5.17;;
9844;SDS011;4961;50.782;6.080;2022-07-21T09:38:27;6.40;;;5.80;;
9844;SDS011;4961;50.782;6.080;2022-07-21T09:41:07;6.33;;;5.50;;
9844;SDS011;4961;50.782;6.080;2022-07-21T09:43:42;6.27;;;5.77;;
9844;SDS011;4961;50.782;6.080;2022-07-21T09:46:13;6.53;;;5.23;;
9844;SDS011;4961;50.782;6.080;2022-07-21T09:48:44;7.60;;;6.03;;
9844;SDS011;4961;50.782;6.080;2022-07-21T09:51:34;6.90;;;5.87;;
9844;SDS011;4961;50.782;6.080;2022-07-21T09:54:07;7.67;;;6.80;;
9844;SDS011;4961;50.782;6.080;2022-07-21T09:56:38;9.33;;;6.70;;
9844;SDS011;4961;50.782;6.080;2022-07-21T09:59:09;8.10;;;7.27;;
9844;SDS011;4961;50.782;6.080;2022-07-21T10:01:39;9.40;;;7.50;;
9844;SDS011;4961;50.782;6.080;2022-07-21T10:04:08;10.83;;;7.90;;
9844;SDS011;4961;50.782;6.080;2022-07-21T10:06:37;11.43;;;10.20;;
9844;SDS011;4961;50.782;6.080;2022-07-21T10:09:07;10.83;;;8.93;;
9844;SDS011;4961;50.782;6.080;2022-07-21T10:11:38;8.93;;;8.20;;
9844;SDS011;4961;50.782;6.080;2022-07-21T10:14:09;9.67;;;8.67;;
9844;SDS011;4961;50.782;6.080;2022-07-21T10:16:38;10.17;;;8.73;;
9844;SDS011;4961;50.782;6.080;2022-07-21T10:19:19;9.60;;;8.70;;
9844;SDS011;4961;50.782;6.080;2022-07-21T10:21:51;11.83;;;8.77;;
9844;SDS011;4961;50.782;6.080;2022-07-21T10:24:28;10.23;;;8.73;;
9844;SDS011;4961;50.782;6.080;2022-07-21T10:27:01;9.50;;;8.47;;
9844;SDS011;4961;50.782;6.080;2022-07-21T10:32:29;9.97;;;9.03;;
9844;SDS011;4961;50.782;6.080;2022-07-21T10:35:00;11.27;;;9.80;;
9844;SDS011;4961;50.782;6.080;2022-07-21T10:37:50;10.10;;;9.20;;
9844;SDS011;4961;50.782;6.080;2022-07-21T10:40:35;11.10;;;8.77;;
9844;SDS011;4961;50.782;6.080;2022-07-21T10:49:05;9.20;;;8.20;;
9844;SDS011;4961;50.782;6.080;2022-07-21T10:51:35;9.30;;;7.93;;
9844;SDS011;4961;50.782;6.080;2022-07-21T10:54:21;9.40;;;7.90;;
9844;SDS011;4961;50.782;6.080;2022-07-21T11:00:15;8.80;;;8.00;;
9844;SDS011;4961;50.782;6.080;2022-07-21T11:02:47;9.07;;;8.23;;
9844;SDS011;4961;50.782;6.080;2022-07-21T11:05:18;8.03;;;7.43;;
9844;SDS011;4961;50.782;6.080;2022-07-21T11:10:52;9.37;;;8.57;;
9844;SDS011;4961;50.782;6.080;2022-07-21T11:13:21;10.03;;;9.07;;
9844;SDS011;4961;50.782;6.080;2022-07-21T11:15:56;10.27;;;9.10;;
9844;SDS011;4961;50.782;6.080;2022-07-21T11:18:28;11.57;;;10.57;;
9844;SDS011;4961;50.782;6.080;2022-07-21T11:23:45;10.30;;;9.40;;
9844;SDS011;4961;50.782;6.080;2022-07-21T11:26:16;11.17;;;10.00;;
9844;SDS011;4961;50.782;6.080;2022-07-21T11:28:45;12.07;;;10.93;;
9844;SDS011;4961;50.782;6.080;2022-07-21T11:31:15;12.87;;;11.17;;
9844;SDS011;4961;50.782;6.080;2022-07-21T11:33:46;13.97;;;11.47;;
9844;SDS011;4961;50.782;6.080;2022-07-21T11:36:22;13.57;;;11.63;;
9844;SDS011;4961;50.782;6.080;2022-07-21T11:39:04;15.23;;;12.83;;
9844;SDS011;4961;50.782;6.080;2022-07-21T11:41:34;13.53;;;12.13;;
9844;SDS011;4961;50.782;6.080;2022-07-21T11:44:04;17.30;;;13.67;;
9844;SDS011;4961;50.782;6.080;2022-07-21T11:46:44;15.97;;;13.30;;
9844;SDS011;4961;50.782;6.080;2022-07-21T11:49:15;16.00;;;13.17;;
9844;SDS011;4961;50.782;6.080;2022-07-21T11:51:47;14.67;;;13.17;;
9844;SDS011;4961;50.782;6.080;2022-07-21T11:54:24;14.40;;;12.90;;
9844;SDS011;4961;50.782;6.080;2022-07-21T11:56:54;14.37;;;12.30;;
9844;SDS011;4961;50.782;6.080;2022-07-21T11:59:24;15.57;;;13.93;;
9844;SDS011;4961;50.782;6.080;2022-07-21T12:01:55;16.33;;;13.33;;
9844;SDS011;4961;50.782;6.080;2022-07-21T12:04:32;15.50;;;13.47;;
9844;SDS011;4961;50.782;6.080;2022-07-21T12:07:14;14.47;;;12.40;;
9844;SDS011;4961;50.782;6.080;2022-07-21T12:09:45;19.33;;;14.27;;
9844;SDS011;4961;50.782;6.080;2022-07-21T12:12:30;17.70;;;14.80;;
9844;SDS011;4961;50.782;6.080;2022-07-21T12:15:10;18.10;;;14.43;;
9844;SDS011;4961;50.782;6.080;2022-07-21T12:17:41;21.17;;;16.00;;
9844;SDS011;4961;50.782;6.080;2022-07-21T12:20:13;17.80;;;15.83;;
9844;SDS011;4961;50.782;6.080;2022-07-21T12:22:43;17.97;;;15.57;;
9844;SDS011;4961;50.782;6.080;2022-07-21T12:25:14;17.10;;;14.63;;
9844;SDS011;4961;50.782;6.080;2022-07-21T12:27:45;19.73;;;15.93;;
9844;SDS011;4961;50.782;6.080;2022-07-21T12:30:31;16.50;;;14.57;;
9844;SDS011;4961;50.782;6.080;2022-07-21T12:33:05;15.90;;;14.20;;
9844;SDS011;4961;50.782;6.080;2022-07-21T12:35:37;17.77;;;14.73;;
9844;SDS011;4961;50.782;6.080;2022-07-21T12:38:08;15.57;;;13.13;;
9844;SDS011;4961;50.782;6.080;2022-07-21T12:40:39;16.40;;;14.70;;
9844;SDS011;4961;50.782;6.080;2022-07-21T12:43:30;16.03;;;14.43;;
9844;SDS011;4961;50.782;6.080;2022-07-21T12:46:00;16.97;;;14.80;;
9844;SDS011;4961;50.782;6.080;2022-07-21T12:48:31;16.20;;;12.77;;
9844;SDS011;4961;50.782;6.080;2022-07-21T12:51:05;3.43;;;3.23;;
9844;SDS011;4961;50.782;6.080;2022-07-21T12:53:43;2.27;;;2.17;;
9844;SDS011;4961;50.782;6.080;2022-07-21T12:56:14;2.43;;;2.20;;
9844;SDS011;4961;50.782;6.080;2022-07-21T12:58:45;3.53;;;2.20;;
9844;SDS011;4961;50.782;6.080;2022-07-21T13:01:15;3.17;;;2.93;;
9844;SDS011;4961;50.782;6.080;2022-07-21T13:03:45;3.03;;;2.83;;
9844;SDS011;4961;50.782;6.080;2022-07-21T13:06:15;4.73;;;4.40;;
9844;SDS011;4961;50.782;6.080;2022-07-21T13:08:44;5.87;;;5.47;;
9844;SDS011;4961;50.782;6.080;2022-07-21T13:11:14;6.67;;;6.07;;
9844;SDS011;4961;50.782;6.080;2022-07-21T13:13:46;5.93;;;5.53;;
9844;SDS011;4961;50.782;6.080;2022-07-21T13:16:16;7.40;;;6.87;;
9844;SDS011;4961;50.782;6.080;2022-07-21T13:18:45;6.47;;;5.97;;
9844;SDS011;4961;50.782;6.080;2022-07-21T13:21:15;6.97;;;6.43;;
9844;SDS011;4961;50.782;6.080;2022-07-21T13:23:44;8.67;;;7.90;;
9844;SDS011;4961;50.782;6.080;2022-07-21T13:26:12;8.43;;;7.63;;
9844;SDS011;4961;50.782;6.080;2022-07-21T13:28:40;9.33;;;7.47;;
9844;SDS011;4961;50.782;6.080;2022-07-21T13:31:09;9.03;;;8.20;;
9844;SDS011;4961;50.782;6.080;2022-07-21T13:33:38;17.33;;;9.30;;
9844;SDS011;4961;50.782;6.080;2022-07-21T13:36:07;10.03;;;7.93;;
9844;SDS011;4961;50.782;6.080;2022-07-21T13:38:38;9.30;;;8.13;;
9844;SDS011;4961;50.782;6.080;2022-07-21T13:41:06;8.90;;;7.77;;
9844;SDS011;4961;50.782;6.080;2022-07-21T13:43:55;12.67;;;8.63;;
9844;SDS011;4961;50.782;6.080;2022-07-21T13:46:24;9.20;;;7.97;;
9844;SDS011;4961;50.782;6.080;2022-07-21T13:48:52;11.37;;;8.20;;
9844;SDS011;4961;50.782;6.080;2022-07-21T13:51:21;10.90;;;8.73;;
9844;SDS011;4961;50.782;6.080;2022-07-21T13:53:51;9.30;;;8.40;;
9844;SDS011;4961;50.782;6.080;2022-07-21T13:56:20;9.97;;;9.10;;
9844;SDS011;4961;50.782;6.080;2022-07-21T13:58:49;10.53;;;9.47;;
9844;SDS011;4961;50.782;6.080;2022-07-21T14:01:17;10.47;;;9.37;;
9844;SDS011;4961;50.782;6.080;2022-07-21T14:03:46;10.80;;;9.20;;
9844;SDS011;4961;50.782;6.080;2022-07-21T14:06:16;12.50;;;9.43;;
9844;SDS011;4961;50.782;6.080;2022-07-21T14:08:44;9.67;;;8.63;;
9844;SDS011;4961;50.782;6.080;2022-07-21T14:11:14;9.30;;;8.37;;
9844;SDS011;4961;50.782;6.080;2022-07-21T14:13:43;8.60;;;7.90;;
9844;SDS011;4961;50.782;6.080;2022-07-21T14:16:11;9.10;;;8.07;;
9844;SDS011;4961;50.782;6.080;2022-07-21T14:18:40;10.17;;;7.90;;
9844;SDS011;4961;50.782;6.080;2022-07-21T14:21:09;9.33;;;8.43;;
9844;SDS011;4961;50.782;6.080;2022-07-21T14:23:38;10.43;;;7.10;;
9844;SDS011;4961;50.782;6.080;2022-07-21T14:26:08;9.57;;;7.77;;
9844;SDS011;4961;50.782;6.080;2022-07-21T14:28:38;8.40;;;6.93;;
9844;SDS011;4961;50.782;6.080;2022-07-21T14:31:07;9.90;;;7.13;;
9844;SDS011;4961;50.782;6.080;2022-07-21T14:33:37;9.87;;;7.60;;
9844;SDS011;4961;50.782;6.080;2022-07-21T14:36:06;8.20;;;7.40;;
9844;SDS011;4961;50.782;6.080;2022-07-21T14:38:34;8.00;;;7.23;;
9844;SDS011;4961;50.782;6.080;2022-07-21T14:41:03;8.70;;;7.10;;
9844;SDS011;4961;50.782;6.080;2022-07-21T14:43:31;7.97;;;6.63;;
9844;SDS011;4961;50.782;6.080;2022-07-21T14:46:01;7.60;;;6.80;;
9844;SDS011;4961;50.782;6.080;2022-07-21T14:48:30;7.33;;;6.57;;
9844;SDS011;4961;50.782;6.080;2022-07-21T14:50:59;6.67;;;6.10;;
9844;SDS011;4961;50.782;6.080;2022-07-21T14:53:27;7.13;;;6.53;;
9844;SDS011;4961;50.782;6.080;2022-07-21T14:55:55;7.80;;;6.40;;
9844;SDS011;4961;50.782;6.080;2022-07-21T14:58:24;7.20;;;6.00;;
9844;SDS011;4961;50.782;6.080;2022-07-21T15:00:52;7.53;;;6.33;;
9844;SDS011;4961;50.782;6.080;2022-07-21T15:03:22;6.33;;;5.73;;
9844;SDS011;4961;50.782;6.080;2022-07-21T15:05:51;5.93;;;5.53;;
9844;SDS011;4961;50.782;6.080;2022-07-21T15:08:19;8.63;;;6.40;;
9844;SDS011;4961;50.782;6.080;2022-07-21T15:10:48;5.13;;;4.63;;
9844;SDS011;4961;50.782;6.080;2022-07-21T15:13:16;5.07;;;4.37;;
9844;SDS011;4961;50.782;6.080;2022-07-21T15:15:44;7.10;;;4.43;;
9844;SDS011;4961;50.782;6.080;2022-07-21T15:18:13;4.83;;;4.03;;
9844;SDS011;4961;50.782;6.080;2022-07-21T15:20:44;4.10;;;3.80;;
9844;SDS011;4961;50.782;6.080;2022-07-21T15:23:12;5.53;;;5.00;;
9844;SDS011;4961;50.782;6.080;2022-07-21T15:25:41;5.60;;;4.87;;
9844;SDS011;4961;50.782;6.080;2022-07-21T15:28:09;4.80;;;4.27;;
9844;SDS011;4961;50.782;6.080;2022-07-21T15:30:37;6.13;;;5.20;;
9844;SDS011;4961;50.782;6.080;2022-07-21T15:33:06;5.53;;;5.13;;
9844;SDS011;4961;50.782;6.080;2022-07-21T15:35:34;8.27;;;5.73;;
9844;SDS011;4961;50.782;6.080;2022-07-21T15:38:04;10.77;;;8.87;;
9844;SDS011;4961;50.782;6.080;2022-07-21T15:40:40;9.50;;;6.77;;
9844;SDS011;4961;50.782;6.080;2022-07-21T15:43:08;6.47;;;5.90;;
9844;SDS011;4961;50.782;6.080;2022-07-21T15:45:37;6.93;;;6.33;;
9844;SDS011;4961;50.782;6.080;2022-07-21T15:48:05;5.73;;;5.17;;
9844;SDS011;4961;50.782;6.080;2022-07-21T15:50:34;5.80;;;5.13;;
9844;SDS011;4961;50.782;6.080;2022-07-21T15:53:05;5.97;;;5.37;;